Time;durP1;ratioP1;P1;durP2;ratioP2;P2;SDS_P1;SDS_P2;PMS_P1;PMS_P2;Temp;Humidity;BMP_temperature;BMP_pressure;BME280_temperature;BME280_humidity;BME280_pressure;Samples;Min_cycle;Max_cycle;Signal;HPM_P1;HPM_P2
2023/04/11 00:00:19;;;;;;;0.30;0.30;;;9.50;99.90;;;;;;5010790;28;20049;-64
2023/04/11 00:02:45;;;;;;;0.03;0.03;;;9.40;99.90;;;;;;5020347;28;20461;-64
2023/04/11 00:05:11;;;;;;;13.45;1.55;;;9.40;99.90;;;;;;5014368;28;20111;-64
2023/04/11 00:07:37;;;;;;;0.30;0.30;;;9.30;99.90;;;;;;5020344;28;20500;-64
2023/04/11 00:10:03;;;;;;;0.10;0.10;;;9.30;99.90;;;;;;5011136;28;20052;-64
2023/04/11 00:12:29;;;;;;;0.10;0.10;;;9.30;99.90;;;;;;5022494;28;20051;-64
2023/04/11 00:14:55;;;;;;;0.10;0.10;;;9.20;99.90;;;;;;5011722;28;20410;-64
2023/04/11 00:17:22;;;;;;;0.45;0.45;;;9.20;99.90;;;;;;5012084;28;20044;-64
2023/04/11 00:19:48;;;;;;;0.10;0.10;;;9.20;99.90;;;;;;5025588;28;20091;-64
2023/04/11 00:22:16;;;;;;;0.08;0.08;;;9.10;99.90;;;;;;5028053;28;20037;-64
2023/04/11 00:24:42;;;;;;;0.00;0.00;;;9.10;99.90;;;;;;5012226;28;20557;-65
2023/04/11 00:27:08;;;;;;;0.10;0.10;;;9.10;99.90;;;;;;5012609;28;20081;-64
2023/04/11 00:29:35;;;;;;;0.10;0.10;;;9.10;99.90;;;;;;5012521;28;20066;-64
2023/04/11 00:32:01;;;;;;;0.10;0.10;;;9.10;99.90;;;;;;5016494;28;20068;-64
2023/04/11 00:34:27;;;;;;;0.00;0.00;;;9.00;99.90;;;;;;5014762;28;20042;-64
2023/04/11 00:36:53;;;;;;;0.10;0.10;;;9.00;99.90;;;;;;5013795;28;20137;-65
2023/04/11 00:39:21;;;;;;;4.18;0.85;;;9.00;99.90;;;;;;5009846;28;20125;-64
2023/04/11 00:41:47;;;;;;;0.03;0.03;;;9.00;99.90;;;;;;5011220;28;20041;-64
2023/04/11 00:44:13;;;;;;;0.63;0.63;;;9.00;99.90;;;;;;5011906;28;20060;-64
2023/04/11 00:46:41;;;;;;;0.10;0.10;;;9.00;99.90;;;;;;5016396;28;20511;-64
2023/04/11 00:49:07;;;;;;;0.10;0.10;;;8.90;99.90;;;;;;5012535;28;20061;-64
2023/04/11 00:51:34;;;;;;;0.00;0.00;;;8.90;99.90;;;;;;5027086;28;20813;-64
2023/04/11 00:54:00;;;;;;;0.10;0.10;;;8.90;99.90;;;;;;5016321;28;20471;-64
2023/04/11 00:56:27;;;;;;;0.10;0.10;;;9.00;99.90;;;;;;5010620;28;20568;-64
2023/04/11 00:58:54;;;;;;;0.10;0.10;;;9.00;99.90;;;;;;5012677;28;20077;-64
2023/04/11 01:01:22;;;;;;;0.00;0.00;;;9.00;99.90;;;;;;5017292;28;20046;-64
2023/04/11 01:03:48;;;;;;;0.43;0.43;;;9.00;99.90;;;;;;5015902;28;20095;-64
2023/04/11 01:06:16;;;;;;;0.10;0.10;;;9.00;99.90;;;;;;5018219;28;20077;-64
2023/04/11 01:08:43;;;;;;;0.10;0.10;;;9.00;99.90;;;;;;5022834;28;20045;-64
2023/04/11 01:11:09;;;;;;;0.00;0.00;;;9.00;99.90;;;;;;5024297;28;20497;-64
2023/04/11 01:13:39;;;;;;;0.05;0.05;;;9.00;99.90;;;;;;5010026;28;20053;-64
2023/04/11 01:16:05;;;;;;;2.63;0.90;;;9.00;99.90;;;;;;5010353;28;20151;-64
2023/04/11 01:18:31;;;;;;;0.00;0.00;;;9.00;99.90;;;;;;5022889;28;20129;-64
2023/04/11 01:20:57;;;;;;;0.00;0.00;;;9.00;99.90;;;;;;5010244;28;20116;-64
2023/04/11 01:23:24;;;;;;;0.10;0.10;;;9.00;99.90;;;;;;5010044;28;20046;-64
2023/04/11 01:25:49;;;;;;;0.10;0.10;;;8.90;99.90;;;;;;5018675;28;20436;-65
2023/04/11 01:28:17;;;;;;;0.10;0.10;;;8.80;99.90;;;;;;5013452;28;20042;-65
2023/04/11 01:30:42;;;;;;;0.10;0.10;;;8.80;99.90;;;;;;5010813;28;20046;-65
2023/04/11 01:33:09;;;;;;;0.10;0.10;;;8.80;99.90;;;;;;5020734;28;20045;-65
2023/04/11 01:35:35;;;;;;;0.10;0.10;;;8.80;99.90;;;;;;5012768;28;20140;-65
2023/04/11 01:38:02;;;;;;;0.10;0.10;;;8.80;99.90;;;;;;5013126;28;20034;-65
2023/04/11 01:40:30;;;;;;;0.00;0.00;;;8.80;99.90;;;;;;5016718;28;20045;-65
2023/04/11 01:42:56;;;;;;;2.75;0.95;;;8.80;99.90;;;;;;5015341;28;20445;-64
2023/04/11 01:45:21;;;;;;;0.20;0.20;;;8.80;99.90;;;;;;5013769;28;20073;-64
2023/04/11 01:47:47;;;;;;;0.00;0.00;;;8.80;99.90;;;;;;5014814;28;20489;-64
2023/04/11 01:50:12;;;;;;;0.10;0.10;;;8.80;99.90;;;;;;5019912;28;20057;-65
2023/04/11 01:52:38;;;;;;;0.10;0.10;;;8.80;99.90;;;;;;5013639;28;20485;-65
2023/04/11 01:55:04;;;;;;;0.30;0.30;;;8.80;99.90;;;;;;5019633;28;20050;-64
2023/04/11 01:57:30;;;;;;;1.30;0.90;;;8.80;99.90;;;;;;5020192;28;20038;-64
2023/04/11 01:59:55;;;;;;;0.10;0.10;;;8.80;99.90;;;;;;5017660;28;20118;-65
2023/04/11 02:02:21;;;;;;;0.40;0.40;;;8.80;99.90;;;;;;5014386;28;20053;-64
2023/04/11 02:04:46;;;;;;;0.10;0.10;;;8.80;99.90;;;;;;5026647;28;20063;-64
2023/04/11 02:07:12;;;;;;;0.10;0.10;;;8.70;99.90;;;;;;5025374;28;20069;-64
2023/04/11 02:09:37;;;;;;;0.30;0.30;;;8.70;99.90;;;;;;5019978;28;20080;-64
2023/04/11 02:12:03;;;;;;;0.28;0.28;;;8.70;99.90;;;;;;5019970;28;20496;-65
2023/04/11 02:14:45;;;;;;;6.80;1.13;;;8.80;99.90;;;;;;5014010;28;20077;-65
2023/04/11 02:17:11;;;;;;;0.10;0.10;;;8.70;99.90;;;;;;5024119;28;20477;-65
2023/04/11 02:19:39;;;;;;;0.00;0.00;;;8.70;99.90;;;;;;5015263;28;20497;-65
2023/04/11 02:22:07;;;;;;;0.00;0.00;;;8.70;99.90;;;;;;5025226;28;20172;-65
2023/04/11 02:24:32;;;;;;;0.10;0.10;;;8.70;99.90;;;;;;5012746;28;20053;-65
2023/04/11 02:26:59;;;;;;;0.75;0.75;;;8.70;99.90;;;;;;5015358;28;20030;-65
2023/04/11 02:29:25;;;;;;;0.63;0.30;;;8.70;99.90;;;;;;5023031;28;20054;-65
2023/04/11 02:31:51;;;;;;;0.10;0.10;;;8.70;99.90;;;;;;5013666;28;20040;-65
2023/04/11 02:34:16;;;;;;;0.10;0.10;;;8.70;99.90;;;;;;5017613;28;20057;-65
2023/04/11 02:36:42;;;;;;;0.10;0.10;;;8.80;99.90;;;;;;5024913;28;20045;-65
2023/04/11 02:39:08;;;;;;;0.10;0.10;;;8.80;99.90;;;;;;5012386;28;20390;-65
2023/04/11 02:41:37;;;;;;;0.73;0.73;;;8.80;99.90;;;;;;5021395;28;20052;-65
2023/04/11 02:44:02;;;;;;;0.10;0.10;;;8.80;99.90;;;;;;5014280;28;20081;-65
2023/04/11 02:46:28;;;;;;;0.10;0.10;;;8.90;99.90;;;;;;5020388;28;20073;-65
2023/04/11 02:48:54;;;;;;;0.10;0.10;;;8.80;99.90;;;;;;5017985;28;20049;-64
2023/04/11 02:51:20;;;;;;;0.10;0.10;;;8.90;99.90;;;;;;5016205;28;20505;-64
2023/04/11 02:53:45;;;;;;;0.10;0.10;;;8.80;99.90;;;;;;5025736;28;20060;-64
2023/04/11 02:56:12;;;;;;;0.45;0.45;;;8.90;99.90;;;;;;5021828;28;20052;-64
2023/04/11 02:58:40;;;;;;;0.08;0.08;;;8.90;99.90;;;;;;5018429;28;20087;-64
2023/04/11 03:01:06;;;;;;;0.73;0.73;;;8.90;99.90;;;;;;5022526;28;20042;-64
2023/04/11 03:03:32;;;;;;;0.10;0.10;;;8.90;99.90;;;;;;5014652;28;20041;-64
2023/04/11 03:05:58;;;;;;;0.10;0.10;;;8.90;99.90;;;;;;5034182;28;20045;-64
2023/04/11 03:08:24;;;;;;;0.10;0.10;;;8.90;99.90;;;;;;5027548;28;20054;-64
2023/04/11 03:10:50;;;;;;;0.10;0.10;;;8.90;99.90;;;;;;5015611;28;20060;-64
2023/04/11 03:13:15;;;;;;;0.57;0.57;;;8.90;99.90;;;;;;5023893;28;20030;-64
2023/04/11 03:15:41;;;;;;;0.10;0.10;;;8.90;99.90;;;;;;5018847;28;20072;-64
2023/04/11 03:18:07;;;;;;;0.10;0.10;;;8.90;99.90;;;;;;5017328;28;20034;-64
2023/04/11 03:20:32;;;;;;;0.10;0.10;;;8.90;99.90;;;;;;5017592;28;20068;-64
2023/04/11 03:22:58;;;;;;;0.00;0.00;;;8.90;99.90;;;;;;5025294;28;20037;-64
2023/04/11 03:25:24;;;;;;;0.10;0.10;;;8.90;99.90;;;;;;5013641;28;20064;-64
2023/04/11 03:27:49;;;;;;;0.10;0.10;;;8.90;99.90;;;;;;5014669;28;20030;-64
2023/04/11 03:30:15;;;;;;;0.10;0.10;;;8.90;99.90;;;;;;5022010;28;20053;-64
2023/04/11 03:32:41;;;;;;;0.00;0.00;;;8.90;99.90;;;;;;5024174;28;20033;-64
2023/04/11 03:35:06;;;;;;;0.90;0.90;;;8.90;99.90;;;;;;5021009;28;20092;-64
2023/04/11 03:37:32;;;;;;;0.75;0.75;;;8.90;99.90;;;;;;5017139;28;20474;-64
2023/04/11 03:39:58;;;;;;;0.00;0.00;;;8.90;99.90;;;;;;5012243;28;20438;-64
2023/04/11 03:42:23;;;;;;;0.20;0.20;;;8.90;99.90;;;;;;5019064;28;20038;-64
2023/04/11 03:44:49;;;;;;;0.08;0.08;;;8.90;99.90;;;;;;5020312;28;20042;-64
2023/04/11 03:47:14;;;;;;;7.43;1.55;;;8.90;99.90;;;;;;5014249;28;20050;-64
2023/04/11 03:49:40;;;;;;;0.00;0.00;;;8.90;99.90;;;;;;5023965;28;20046;-64
2023/04/11 03:52:06;;;;;;;0.10;0.10;;;8.90;99.90;;;;;;5018417;28;20058;-64
2023/04/11 03:54:32;;;;;;;0.47;0.47;;;8.90;99.90;;;;;;5014744;28;20092;-64
2023/04/11 03:56:57;;;;;;;0.10;0.10;;;8.90;99.90;;;;;;5021831;28;20073;-64
2023/04/11 03:59:23;;;;;;;0.95;0.95;;;8.80;99.90;;;;;;5016786;28;20048;-64
2023/04/11 04:01:48;;;;;;;0.00;0.00;;;8.80;99.90;;;;;;5014074;28;20044;-64
2023/04/11 04:04:14;;;;;;;0.10;0.10;;;8.80;99.90;;;;;;5011145;28;20690;-64
2023/04/11 04:06:40;;;;;;;0.00;0.00;;;8.80;99.90;;;;;;5014048;28;20048;-64
2023/04/11 04:09:06;;;;;;;0.10;0.10;;;8.70;99.90;;;;;;5011165;28;20520;-64
2023/04/11 04:11:32;;;;;;;0.70;0.52;;;8.70;99.90;;;;;;5009966;28;20054;-64
2023/04/11 04:13:57;;;;;;;0.10;0.10;;;8.70;99.90;;;;;;5019306;28;20367;-64
2023/04/11 04:16:23;;;;;;;0.00;0.00;;;8.70;99.90;;;;;;5012264;28;20463;-64
2023/04/11 04:18:49;;;;;;;0.10;0.10;;;8.60;99.90;;;;;;5010763;28;20053;-64
2023/04/11 04:21:15;;;;;;;0.00;0.00;;;8.60;99.90;;;;;;5017811;28;20080;-64
2023/04/11 04:23:46;;;;;;;0.00;0.00;;;8.60;99.90;;;;;;5015314;28;20546;-64
2023/04/11 04:26:14;;;;;;;0.10;0.10;;;8.70;99.90;;;;;;5014162;28;20049;-64
2023/04/11 04:28:44;;;;;;;0.10;0.10;;;8.60;99.90;;;;;;5021587;28;20046;-63
2023/04/11 04:31:12;;;;;;;0.10;0.10;;;8.70;99.90;;;;;;5015045;28;20042;-63
2023/04/11 04:33:41;;;;;;;0.10;0.10;;;8.60;99.90;;;;;;5020508;28;20041;-63
2023/04/11 04:36:08;;;;;;;0.10;0.10;;;8.70;99.90;;;;;;5018130;28;20048;-63
2023/04/11 04:38:37;;;;;;;0.10;0.10;;;8.60;99.90;;;;;;5026023;28;20098;-63
2023/04/11 04:41:04;;;;;;;0.00;0.00;;;8.60;99.90;;;;;;5014149;28;20111;-63
2023/04/11 04:43:31;;;;;;;0.00;0.00;;;8.60;99.90;;;;;;5020518;28;20049;-63
2023/04/11 04:45:57;;;;;;;0.10;0.10;;;8.70;99.90;;;;;;5011042;28;20042;-63
2023/04/11 04:48:24;;;;;;;0.45;0.32;;;8.60;99.90;;;;;;5010811;28;20060;-63
2023/04/11 04:50:50;;;;;;;0.90;0.90;;;8.60;99.90;;;;;;5018638;28;20053;-64
2023/04/11 04:53:15;;;;;;;0.00;0.00;;;8.60;99.90;;;;;;5014056;28;20045;-64
2023/04/11 04:55:41;;;;;;;0.17;0.17;;;8.50;99.90;;;;;;5013182;28;20181;-64
2023/04/11 04:58:06;;;;;;;0.00;0.00;;;8.50;99.90;;;;;;5028294;28;20037;-64
2023/04/11 05:00:32;;;;;;;0.10;0.10;;;8.40;99.90;;;;;;5015715;28;20099;-64
2023/04/11 05:02:58;;;;;;;0.10;0.10;;;8.40;99.90;;;;;;5019086;28;20041;-64
2023/04/11 05:05:23;;;;;;;0.43;0.43;;;8.30;99.90;;;;;;5012132;28;20041;-64
2023/04/11 05:07:49;;;;;;;0.20;0.20;;;8.30;99.90;;;;;;5014806;28;20033;-64
2023/04/11 05:10:14;;;;;;;0.00;0.00;;;8.30;99.90;;;;;;5016353;28;20074;-63
2023/04/11 05:12:40;;;;;;;1.65;1.55;;;8.30;99.90;;;;;;5010107;28;20061;-64
2023/04/11 05:15:10;;;;;;;1.35;1.27;;;8.30;99.90;;;;;;5020194;28;20133;-65
2023/04/11 05:17:36;;;;;;;0.20;0.20;;;8.30;99.90;;;;;;5015359;28;20046;-65
2023/04/11 05:20:04;;;;;;;0.35;0.35;;;8.40;99.90;;;;;;5022986;28;20098;-65
2023/04/11 05:22:30;;;;;;;0.00;0.00;;;8.40;99.90;;;;;;5027837;28;20116;-65
2023/04/11 05:24:56;;;;;;;0.10;0.10;;;8.40;99.90;;;;;;5011404;28;20050;-65
2023/04/11 05:27:21;;;;;;;0.10;0.10;;;8.30;99.90;;;;;;5020391;28;20516;-65
2023/04/11 05:29:47;;;;;;;0.00;0.00;;;8.40;99.90;;;;;;5012170;28;20042;-65
2023/04/11 05:32:13;;;;;;;0.10;0.10;;;8.40;99.90;;;;;;5014749;28;20054;-65
2023/04/11 05:34:53;;;;;;;0.00;0.00;;;8.40;99.90;;;;;;5017346;28;20073;-65
2023/04/11 05:37:19;;;;;;;0.52;0.52;;;8.40;99.90;;;;;;5017613;28;20034;-65
2023/04/11 05:39:45;;;;;;;0.00;0.00;;;8.40;99.90;;;;;;5019801;28;20136;-65
2023/04/11 05:42:10;;;;;;;0.10;0.10;;;8.40;99.90;;;;;;5017761;28;20112;-65
2023/04/11 05:44:36;;;;;;;0.10;0.10;;;8.50;99.90;;;;;;5021986;28;20041;-65
2023/04/11 05:47:02;;;;;;;0.10;0.10;;;8.50;99.90;;;;;;5022597;28;20468;-65
2023/04/11 05:49:27;;;;;;;0.57;0.57;;;8.50;99.90;;;;;;5017909;28;20053;-65
2023/04/11 05:51:53;;;;;;;2.17;1.23;;;8.60;99.90;;;;;;5018787;28;20413;-65
2023/04/11 05:54:31;;;;;;;0.35;0.35;;;8.60;99.90;;;;;;5021206;28;20052;-64
2023/04/11 05:56:57;;;;;;;0.15;0.15;;;8.60;99.90;;;;;;5010384;28;20045;-65
2023/04/11 05:59:22;;;;;;;0.10;0.10;;;8.60;99.90;;;;;;5016865;28;20054;-65
2023/04/11 06:01:49;;;;;;;0.10;0.10;;;8.60;99.90;;;;;;5020224;28;20145;-65
2023/04/11 06:04:15;;;;;;;0.63;0.63;;;8.60;99.90;;;;;;5018082;28;20049;-65
2023/04/11 06:06:42;;;;;;;0.10;0.10;;;8.60;99.90;;;;;;5018575;28;20045;-64
2023/04/11 06:09:09;;;;;;;0.00;0.00;;;8.60;99.90;;;;;;5014965;28;20160;-64
2023/04/11 06:11:35;;;;;;;0.22;0.22;;;8.60;99.90;;;;;;5012511;28;20106;-64
2023/04/11 06:14:00;;;;;;;0.10;0.10;;;8.60;99.90;;;;;;5030828;28;20087;-64
2023/04/11 06:16:26;;;;;;;0.25;0.25;;;8.60;99.90;;;;;;5015782;28;20165;-65
2023/04/11 06:18:52;;;;;;;0.10;0.10;;;8.60;99.90;;;;;;5024690;28;20136;-65
2023/04/11 06:21:17;;;;;;;2.17;0.68;;;8.70;99.90;;;;;;5021567;28;20080;-65
2023/04/11 06:23:43;;;;;;;0.10;0.10;;;8.60;99.90;;;;;;5020860;28;20495;-65
2023/04/11 06:26:08;;;;;;;0.40;0.30;;;8.60;99.90;;;;;;5016060;28;20038;-65
2023/04/11 06:28:34;;;;;;;0.10;0.10;;;8.70;99.90;;;;;;5013817;28;20042;-65
2023/04/11 06:30:59;;;;;;;0.10;0.10;;;8.70;99.90;;;;;;5015418;28;20084;-66
2023/04/11 06:33:25;;;;;;;2.45;2.33;;;8.70;99.90;;;;;;5013347;28;20058;-65
2023/04/11 06:35:50;;;;;;;0.10;0.10;;;8.70;99.90;;;;;;5014264;28;20061;-65
2023/04/11 06:38:16;;;;;;;0.30;0.30;;;8.70;99.90;;;;;;5023983;28;20037;-65
2023/04/11 06:40:42;;;;;;;0.10;0.10;;;8.70;99.90;;;;;;5022073;28;20050;-65
2023/04/11 06:43:07;;;;;;;0.68;0.68;;;8.70;99.90;;;;;;5013291;28;20485;-65
2023/04/11 06:45:33;;;;;;;0.00;0.00;;;8.70;99.90;;;;;;5014755;28;20487;-65
2023/04/11 06:47:58;;;;;;;1.00;1.00;;;8.80;99.90;;;;;;5027863;28;20115;-65
2023/04/11 06:50:24;;;;;;;0.10;0.10;;;8.80;99.90;;;;;;5016117;28;20053;-65
2023/04/11 06:52:49;;;;;;;0.52;0.52;;;8.70;99.90;;;;;;5012299;28;20046;-65
2023/04/11 06:55:15;;;;;;;1.02;0.90;;;8.80;99.90;;;;;;5011557;28;20145;-66
2023/04/11 06:57:42;;;;;;;0.10;0.10;;;8.80;99.90;;;;;;5022287;28;20589;-65
2023/04/11 07:00:08;;;;;;;0.38;0.38;;;8.80;99.90;;;;;;5013198;28;20042;-65
2023/04/11 07:02:37;;;;;;;0.20;0.20;;;8.80;99.90;;;;;;5012602;28;20041;-65
2023/04/11 07:05:04;;;;;;;0.38;0.38;;;8.90;99.90;;;;;;5012691;28;20050;-65
2023/04/11 07:07:30;;;;;;;0.10;0.10;;;8.90;99.90;;;;;;5018213;28;20145;-65
2023/04/11 07:09:56;;;;;;;0.00;0.00;;;8.90;99.90;;;;;;5015026;28;20124;-65
2023/04/11 07:12:21;;;;;;;0.10;0.10;;;8.90;99.90;;;;;;5022414;28;20205;-65
2023/04/11 07:14:47;;;;;;;0.10;0.10;;;8.90;99.90;;;;;;5018045;28;20477;-65
2023/04/11 07:17:12;;;;;;;0.47;0.47;;;8.90;99.90;;;;;;5012898;28;20044;-65
2023/04/11 07:19:38;;;;;;;0.10;0.10;;;8.90;99.90;;;;;;5014254;28;20046;-63
2023/04/11 07:22:04;;;;;;;0.52;0.52;;;8.90;99.90;;;;;;5012328;28;20628;-66
2023/04/11 07:24:29;;;;;;;5.75;1.55;;;9.10;99.90;;;;;;5012153;28;20037;-66
2023/04/11 07:26:57;;;;;;;0.00;0.00;;;9.10;99.90;;;;;;5012670;28;20050;-65
2023/04/11 07:29:23;;;;;;;0.10;0.10;;;9.10;99.90;;;;;;5010880;28;20046;-65
2023/04/11 07:31:50;;;;;;;0.00;0.00;;;9.20;99.90;;;;;;5011304;28;20084;-64
2023/04/11 07:34:16;;;;;;;0.20;0.20;;;9.10;99.90;;;;;;5026381;28;20045;-64
2023/04/11 07:36:41;;;;;;;0.52;0.52;;;9.20;99.90;;;;;;5020470;28;20069;-63
2023/04/11 07:39:08;;;;;;;1.00;1.00;;;9.10;99.90;;;;;;5013484;28;20053;-64
2023/04/11 07:41:36;;;;;;;0.47;0.47;;;9.10;99.90;;;;;;5006591;28;20474;-63
2023/04/11 07:44:05;;;;;;;0.10;0.10;;;9.30;99.90;;;;;;5019783;28;20473;-64
2023/04/11 07:46:30;;;;;;;0.55;0.55;;;9.30;99.90;;;;;;5023512;28;20045;-65
2023/04/11 07:48:56;;;;;;;0.10;0.10;;;9.30;99.90;;;;;;5016310;28;20053;-65
2023/04/11 07:51:21;;;;;;;0.10;0.10;;;9.30;99.90;;;;;;5021004;28;20057;-65
2023/04/11 07:53:47;;;;;;;0.10;0.10;;;9.30;99.90;;;;;;5019896;28;20048;-65
2023/04/11 07:56:14;;;;;;;0.65;0.65;;;9.20;99.90;;;;;;5019421;28;20049;-64
2023/04/11 07:58:40;;;;;;;0.65;0.65;;;9.20;99.90;;;;;;5021657;28;20062;-64
2023/04/11 08:01:07;;;;;;;0.25;0.17;;;9.20;99.90;;;;;;5027720;28;20049;-64
2023/04/11 08:03:33;;;;;;;4.80;1.05;;;9.20;99.90;;;;;;5024428;28;20186;-65
2023/04/11 08:05:59;;;;;;;0.20;0.20;;;9.50;99.90;;;;;;5011599;28;20411;-64
2023/04/11 08:08:25;;;;;;;1.67;1.55;;;9.50;99.90;;;;;;5019190;28;20127;-64
2023/04/11 08:10:50;;;;;;;0.10;0.10;;;9.40;99.90;;;;;;5020023;28;20045;-64
2023/04/11 08:13:16;;;;;;;0.17;0.17;;;9.30;99.90;;;;;;5023333;28;20045;-64
2023/04/11 08:15:42;;;;;;;0.20;0.20;;;9.10;99.90;;;;;;5012046;28;20101;-64
2023/04/11 08:18:07;;;;;;;0.10;0.10;;;9.30;99.90;;;;;;5011637;28;20033;-64
2023/04/11 08:20:33;;;;;;;0.32;0.32;;;9.50;99.90;;;;;;5012237;28;20053;-64
2023/04/11 08:23:02;;;;;;;1.40;1.02;;;9.80;99.90;;;;;;5009379;28;20038;-64
2023/04/11 08:25:28;;;;;;;0.10;0.10;;;10.10;99.90;;;;;;5018273;28;20054;-64
2023/04/11 08:27:54;;;;;;;1.38;1.05;;;10.50;99.90;;;;;;5013153;28;20048;-64
2023/04/11 08:30:20;;;;;;;0.10;0.10;;;10.70;99.90;;;;;;5015426;28;20046;-64
2023/04/11 08:32:45;;;;;;;0.20;0.20;;;10.60;99.90;;;;;;5012530;28;20099;-64
2023/04/11 08:35:11;;;;;;;0.10;0.10;;;10.40;99.90;;;;;;5011316;28;20060;-64
2023/04/11 08:37:36;;;;;;;0.90;0.70;;;10.40;99.90;;;;;;5023975;28;20034;-64
2023/04/11 08:40:05;;;;;;;0.68;0.68;;;10.20;99.90;;;;;;5009526;28;20091;-64
2023/04/11 08:42:31;;;;;;;1.23;1.13;;;10.10;99.90;;;;;;5010858;28;20448;-64
2023/04/11 08:45:07;;;;;;;0.10;0.10;;;9.90;99.90;;;;;;5009946;28;20045;-64
2023/04/11 08:47:34;;;;;;;4.30;1.27;;;9.90;99.90;;;;;;5010410;28;20046;-64
2023/04/11 08:49:59;;;;;;;0.70;0.70;;;9.80;99.90;;;;;;5017036;28;20531;-64
2023/04/11 08:52:26;;;;;;;0.10;0.10;;;9.80;99.90;;;;;;5009766;28;20142;-64
2023/04/11 08:54:53;;;;;;;0.30;0.30;;;9.70;99.90;;;;;;5019413;28;20100;-64
2023/04/11 08:57:27;;;;;;;0.10;0.10;;;9.70;99.90;;;;;;5010703;28;20053;-64
2023/04/11 09:00:08;;;;;;;0.17;0.17;;;9.80;99.90;;;;;;5012171;28;20467;-64
2023/04/11 09:02:33;;;;;;;0.00;0.00;;;9.90;99.90;;;;;;5009952;28;20064;-64
2023/04/11 09:04:59;;;;;;;2.72;1.40;;;10.00;99.90;;;;;;5017007;28;20034;-64
2023/04/11 09:07:25;;;;;;;0.10;0.10;;;10.00;99.90;;;;;;5012933;28;20504;-64
2023/04/11 09:09:51;;;;;;;1.27;1.17;;;9.90;99.90;;;;;;5053396;28;20053;-63
2023/04/11 09:12:20;;;;;;;0.00;0.00;;;9.80;99.90;;;;;;5030702;28;20600;-64
2023/04/11 09:14:45;;;;;;;3.10;2.78;;;9.70;99.90;;;;;;5009759;28;20073;-63
2023/04/11 09:17:15;;;;;;;0.10;0.10;;;9.50;99.90;;;;;;5013366;28;20084;-64
2023/04/11 09:19:41;;;;;;;0.10;0.10;;;9.50;99.90;;;;;;5016385;28;20156;-64
2023/04/11 09:22:07;;;;;;;0.00;0.00;;;9.40;99.90;;;;;;5016838;28;20068;-65
2023/04/11 09:24:34;;;;;;;0.00;0.00;;;9.20;99.90;;;;;;5022544;28;20072;-64
2023/04/11 09:27:14;;;;;;;0.00;0.00;;;8.80;99.90;;;;;;5011160;28;20515;-64
2023/04/11 09:29:45;;;;;;;0.10;0.10;;;8.70;99.90;;;;;;5039018;28;20646;-66
2023/04/11 09:32:29;;;;;;;0.10;0.10;;;8.50;99.90;;;;;;5023855;28;20401;-65
2023/04/11 09:35:24;;;;;;;0.00;0.00;;;8.40;99.90;;;;;;5023508;28;20046;-66
2023/04/11 09:37:54;;;;;;;0.08;0.08;;;8.40;99.90;;;;;;5010967;28;20444;-65
2023/04/11 09:40:30;;;;;;;0.25;0.13;;;8.20;99.90;;;;;;5010786;28;20042;-65
2023/04/11 09:43:02;;;;;;;0.10;0.10;;;8.00;99.90;;;;;;5010102;28;20132;-65
2023/04/11 09:45:30;;;;;;;1.20;1.10;;;7.90;99.90;;;;;;5011583;28;20068;-65
2023/04/11 09:47:57;;;;;;;0.10;0.10;;;7.90;99.90;;;;;;5009272;28;20050;-66
2023/04/11 09:50:24;;;;;;;0.43;0.40;;;7.80;99.90;;;;;;5012488;28;20081;-66
2023/04/11 09:52:51;;;;;;;3.13;0.75;;;7.70;99.90;;;;;;5017702;28;20440;-66
2023/04/11 09:55:21;;;;;;;0.10;0.10;;;7.60;99.90;;;;;;5016864;28;20080;-67
2023/04/11 09:57:49;;;;;;;0.10;0.10;;;7.50;99.90;;;;;;5024765;28;20046;-66
2023/04/11 10:00:20;;;;;;;0.00;0.00;;;7.50;99.90;;;;;;5013506;28;20046;-66
2023/04/11 10:02:48;;;;;;;0.10;0.10;;;7.50;99.90;;;;;;5026523;28;20124;-66
2023/04/11 10:05:16;;;;;;;0.10;0.10;;;7.40;99.90;;;;;;5013766;28;20042;-67
2023/04/11 10:08:01;;;;;;;0.10;0.10;;;7.50;99.90;;;;;;5017515;28;20065;-67
2023/04/11 10:10:26;;;;;;;0.05;0.05;;;7.60;99.90;;;;;;5014444;28;20061;-67
2023/04/11 10:12:52;;;;;;;0.10;0.10;;;7.80;99.90;;;;;;5012915;28;20046;-66
2023/04/11 10:15:18;;;;;;;0.08;0.08;;;7.90;99.90;;;;;;5016965;28;20056;-67
2023/04/11 10:18:06;;;;;;;0.10;0.10;;;7.80;99.90;;;;;;5013482;28;20125;-67
2023/04/11 10:20:34;;;;;;;0.10;0.10;;;7.70;99.90;;;;;;5012648;28;20061;-67
2023/04/11 10:23:00;;;;;;;0.10;0.10;;;7.80;99.90;;;;;;5018988;28;20050;-67
2023/04/11 10:25:27;;;;;;;0.10;0.10;;;8.10;99.90;;;;;;5016428;28;20037;-67
2023/04/11 10:28:02;;;;;;;0.03;0.03;;;8.20;99.90;;;;;;5012591;28;20038;-67
2023/04/11 10:30:40;;;;;;;0.10;0.10;;;8.30;99.90;;;;;;5016277;28;20053;-67
2023/04/11 10:33:10;;;;;;;2.72;1.23;;;8.80;99.90;;;;;;5025245;28;20046;-66
2023/04/11 10:35:58;;;;;;;0.00;0.00;;;9.10;99.90;;;;;;5032655;28;20049;-66
2023/04/11 10:38:39;;;;;;;1.70;1.30;;;9.40;99.90;;;;;;5012486;28;20045;-67
2023/04/11 10:41:17;;;;;;;1.20;1.20;;;9.50;99.90;;;;;;5013198;28;20489;-66
2023/04/11 10:43:43;;;;;;;0.10;0.10;;;9.40;99.90;;;;;;5012288;28;20049;-66
2023/04/11 10:46:20;;;;;;;0.10;0.10;;;9.30;99.90;;;;;;5018084;28;20136;-66
2023/04/11 10:49:51;;;;;;;0.00;0.00;;;9.00;99.90;;;;;;5056166;28;20367;-66
2023/04/11 10:52:22;;;;;;;0.10;0.10;;;8.80;99.90;;;;;;4969862;28;20089;-66
2023/04/11 10:54:50;;;;;;;0.10;0.10;;;8.80;99.90;;;;;;5008318;28;20062;-66
2023/04/11 10:57:15;;;;;;;0.10;0.10;;;9.50;99.90;;;;;;5015578;28;20485;-66
2023/04/11 10:59:41;;;;;;;0.00;0.00;;;9.80;99.90;;;;;;5020530;28;20048;-66
2023/04/11 11:02:07;;;;;;;0.10;0.10;;;9.80;99.90;;;;;;5018450;28;20064;-66
2023/04/11 11:04:35;;;;;;;0.47;0.47;;;10.20;99.90;;;;;;5025923;28;20048;-66
2023/04/11 11:07:05;;;;;;;0.10;0.10;;;10.60;99.90;;;;;;5012375;28;20037;-66
2023/04/11 11:09:32;;;;;;;0.10;0.10;;;10.30;99.90;;;;;;5011208;28;20084;-66
2023/04/11 11:12:24;;;;;;;0.00;0.00;;;10.60;99.90;;;;;;5011168;28;20485;-66
2023/04/11 11:14:50;;;;;;;0.10;0.10;;;11.20;99.90;;;;;;5008527;28;20701;-65
2023/04/11 11:17:16;;;;;;;0.10;0.10;;;11.30;99.90;;;;;;5011291;28;20086;-65
2023/04/11 11:19:45;;;;;;;0.10;0.10;;;11.10;99.90;;;;;;5015018;28;20058;-65
2023/04/11 11:22:24;;;;;;;0.00;0.00;;;11.30;99.90;;;;;;5011463;28;20050;-65
2023/04/11 11:24:52;;;;;;;0.08;0.08;;;11.20;99.90;;;;;;5011837;28;20048;-65
2023/04/11 11:27:22;;;;;;;0.10;0.10;;;11.30;99.90;;;;;;5011554;28;20053;-65
2023/04/11 11:29:49;;;;;;;0.00;0.00;;;11.20;99.90;;;;;;5014243;28;20548;-65
2023/04/11 11:32:23;;;;;;;4.60;2.83;;;11.30;99.90;;;;;;5014776;28;20432;-65
2023/04/11 11:34:51;;;;;;;1.75;0.35;;;11.50;99.90;;;;;;5012911;28;20033;-66
2023/04/11 11:37:17;;;;;;;0.10;0.10;;;11.50;99.90;;;;;;5045409;28;20060;-65
2023/04/11 11:39:43;;;;;;;0.05;0.05;;;11.50;99.90;;;;;;5019557;28;20173;-65
2023/04/11 11:42:09;;;;;;;0.10;0.10;;;11.50;99.90;;;;;;5013376;28;20053;-65
2023/04/11 11:44:36;;;;;;;0.00;0.00;;;11.40;99.90;;;;;;5014822;28;20061;-65
2023/04/11 11:47:04;;;;;;;0.10;0.10;;;11.40;99.90;;;;;;5011143;28;20038;-65
2023/04/11 11:49:46;;;;;;;0.10;0.10;;;11.20;99.90;;;;;;5015277;28;20122;-65
2023/04/11 11:52:30;;;;;;;0.98;0.88;;;11.10;99.90;;;;;;5016561;28;20099;-65
2023/04/11 11:54:56;;;;;;;0.40;0.40;;;11.00;99.90;;;;;;5016359;28;20046;-65
2023/04/11 11:57:21;;;;;;;0.10;0.10;;;10.80;99.90;;;;;;5011231;28;20123;-65
2023/04/11 11:59:53;;;;;;;1.13;1.10;;;10.70;99.90;;;;;;5032729;28;20053;-64
2023/04/11 12:02:21;;;;;;;0.40;0.40;;;11.10;99.90;;;;;;5033718;28;20125;-64
2023/04/11 12:04:47;;;;;;;0.10;0.10;;;11.80;99.90;;;;;;5011303;28;20447;-64
2023/04/11 12:07:13;;;;;;;9.02;1.20;;;11.60;99.90;;;;;;5030747;28;20073;-64
2023/04/11 12:09:39;;;;;;;0.20;0.20;;;11.50;99.90;;;;;;5017119;28;20046;-65
2023/04/11 12:12:08;;;;;;;0.20;0.20;;;11.70;99.90;;;;;;5018593;28;20046;-64
2023/04/11 12:14:34;;;;;;;0.10;0.10;;;12.00;99.90;;;;;;5016174;28;20049;-64
2023/04/11 12:16:59;;;;;;;1.65;1.08;;;12.10;99.90;;;;;;5010345;28;20042;-64
2023/04/11 12:19:26;;;;;;;2.08;0.65;;;12.50;99.90;;;;;;5014386;28;20047;-64
2023/04/11 12:21:52;;;;;;;0.52;0.52;;;12.00;99.90;;;;;;5009990;28;20048;-64
2023/04/11 12:24:17;;;;;;;0.38;0.38;;;11.70;99.90;;;;;;5014069;28;20057;-64
2023/04/11 12:26:44;;;;;;;0.20;0.20;;;11.40;99.90;;;;;;5009737;28;20053;-65
2023/04/11 12:29:10;;;;;;;0.05;0.05;;;11.10;99.90;;;;;;5012164;28;20127;-64
2023/04/11 12:31:36;;;;;;;15.60;1.38;;;11.00;99.90;;;;;;5014514;28;20073;-64
2023/04/11 12:34:01;;;;;;;3.05;1.40;;;11.20;99.90;;;;;;5023581;28;20073;-64
2023/04/11 12:36:27;;;;;;;0.00;0.00;;;11.20;99.90;;;;;;5019006;28;20052;-65
2023/04/11 12:38:53;;;;;;;0.10;0.10;;;11.50;99.90;;;;;;5010614;28;20395;-64
2023/04/11 12:41:19;;;;;;;0.20;0.20;;;12.10;99.90;;;;;;5033896;28;20550;-64
2023/04/11 12:43:45;;;;;;;0.10;0.10;;;12.30;99.90;;;;;;5019520;28;20080;-64
2023/04/11 12:46:11;;;;;;;1.55;1.27;;;12.60;99.90;;;;;;5019541;28;20045;-64
2023/04/11 12:48:36;;;;;;;5.57;1.38;;;12.20;99.90;;;;;;5010542;28;20088;-65
2023/04/11 12:51:02;;;;;;;0.55;0.55;;;11.80;99.90;;;;;;5015634;28;20417;-64
2023/04/11 12:53:27;;;;;;;0.25;0.25;;;11.60;99.90;;;;;;5009573;28;20060;-64
2023/04/11 12:55:53;;;;;;;0.20;0.20;;;11.70;99.90;;;;;;5010366;28;20047;-64